Terminal Aerodrome Forecast
Issued by NWS Amarillo, TX

Home | Current Version | Previous Version | Text Only | Print | Product List | Glossary On
Versions: 1 2 3 4 5 6 7 8 9 10 11 12 13 14 15
000
FTUS44 KAMA 031436 AAA
TAFDHT
TAF AMD
KDHT 031436Z 0315/0412 02006KT 1SM BR OVC003
     FM032100 14005KT 4SM -RA BR OVC005
     FM040800 35002KT 1SM BR OVC003=

USA.gov is the U.S. government's official web portal to all federal, state and local government web resources and services.